Time;durP1;ratioP1;P1;durP2;ratioP2;P2;SDS_P1;SDS_P2;PMS_P1;PMS_P2;Temp;Humidity;BMP_temperature;BMP_pressure;BME280_temperature;BME280_humidity;BME280_pressure;Samples;Min_cycle;Max_cycle;Signal;HPM_P1;HPM_P2
2022/03/04 00:02:22;;;;;;;22.30;11.05;;;;;;;1.71;98.01;102133.59;10416041;28;20080;-64
2022/03/04 00:07:44;;;;;;;20.00;10.60;;;;;;;1.80;97.66;102143.78;10415220;28;20139;-64
2022/03/04 00:13:06;;;;;;;18.08;10.00;;;;;;;1.73;98.53;102137.00;10415991;28;20053;-63
2022/03/04 00:18:28;;;;;;;18.58;10.30;;;;;;;1.67;98.75;102141.34;10375403;28;20691;-64
2022/03/04 00:23:50;;;;;;;20.23;10.43;;;;;;;1.67;97.80;102131.91;10388580;28;20060;-64
2022/03/04 00:29:12;;;;;;;16.33;9.30;;;;;;;1.64;99.04;102129.34;10388716;28;20050;-65
2022/03/04 00:34:34;;;;;;;20.65;10.48;;;;;;;1.48;98.73;102144.88;10373760;28;20061;-64
2022/03/04 00:39:55;;;;;;;19.30;10.40;;;;;;;1.41;98.96;102132.94;10412562;28;20059;-64
2022/03/04 00:45:17;;;;;;;21.77;10.80;;;;;;;1.32;99.41;102141.56;10413665;28;20132;-64
2022/03/04 00:50:39;;;;;;;20.92;10.55;;;;;;;1.36;98.93;102150.94;10415244;28;20068;-64
2022/03/04 00:56:01;;;;;;;22.85;10.98;;;;;;;1.25;99.52;102149.31;10413086;28;20128;-64
2022/03/04 01:01:23;;;;;;;24.38;11.63;;;;;;;1.32;99.55;102156.97;10404532;28;20081;-64
2022/03/04 01:06:45;;;;;;;20.17;10.70;;;;;;;1.25;99.49;102154.44;10374259;28;20518;-64
2022/03/04 01:12:07;;;;;;;23.60;10.75;;;;;;;1.15;100.00;102161.34;10425514;28;20053;-64
2022/03/04 01:17:29;;;;;;;18.30;10.07;;;;;;;1.24;99.13;102165.56;10412802;28;20057;-64
2022/03/04 01:22:50;;;;;;;19.52;10.30;;;;;;;1.07;100.00;102168.22;10413251;28;20394;-63
2022/03/04 01:28:12;;;;;;;23.08;10.90;;;;;;;1.06;100.00;102174.22;10406178;28;20057;-64
2022/03/04 01:33:37;;;;;;;24.02;11.25;;;;;;;1.29;100.00;102172.41;10429910;28;20173;-64
2022/03/04 01:39:00;;;;;;;22.60;11.40;;;;;;;1.32;100.00;102163.81;10410846;28;20045;-64
2022/03/04 01:44:22;;;;;;;21.63;11.30;;;;;;;1.40;100.00;102174.88;10404961;28;20498;-64
2022/03/04 01:49:44;;;;;;;20.90;10.68;;;;;;;1.44;100.00;102174.88;10412424;28;20087;-64
2022/03/04 01:55:08;;;;;;;23.50;11.77;;;;;;;1.49;100.00;102173.13;10412938;28;20049;-64
2022/03/04 02:00:29;;;;;;;21.45;11.10;;;;;;;1.61;100.00;102180.75;10428896;28;20057;-64
2022/03/04 02:05:51;;;;;;;21.45;11.57;;;;;;;1.64;100.00;102185.03;10425541;28;20046;-64
2022/03/04 02:11:13;;;;;;;22.58;11.13;;;;;;;1.49;100.00;102183.41;10408741;28;20085;-64
2022/03/04 02:16:40;;;;;;;23.23;11.13;;;;;;;1.61;100.00;102173.03;10409825;28;20041;-64
2022/03/04 02:22:04;;;;;;;19.95;11.07;;;;;;;1.66;100.00;102176.44;10411284;28;21000;-63
2022/03/04 02:27:26;;;;;;;24.13;10.88;;;;;;;1.66;100.00;102176.44;10396191;28;20073;-64
2022/03/04 02:32:48;;;;;;;23.17;11.23;;;;;;;1.57;100.00;102171.38;10422297;28;20050;-64
2022/03/04 02:38:10;;;;;;;20.80;11.80;;;;;;;1.62;100.00;102174.75;10406400;28;20232;-64
2022/03/04 02:43:31;;;;;;;24.83;11.57;;;;;;;1.64;100.00;102162.75;10398732;28;20061;-64
2022/03/04 02:48:53;;;;;;;25.95;11.52;;;;;;;1.63;100.00;102168.75;10374052;28;20058;-64
2022/03/04 02:54:15;;;;;;;21.45;11.32;;;;;;;1.76;100.00;102167.78;10370984;28;20053;-63
2022/03/04 02:59:37;;;;;;;25.85;10.18;;;;;;;1.66;100.00;102161.03;10379260;28;20069;-64
2022/03/04 03:04:58;;;;;;;21.42;11.52;;;;;;;1.77;100.00;102184.91;10369059;28;20050;-63
2022/03/04 03:10:20;;;;;;;21.42;11.02;;;;;;;1.72;99.38;102176.41;10389597;28;20045;-64
2022/03/04 03:15:42;;;;;;;21.65;10.73;;;;;;;1.66;100.00;102181.56;10408953;28;20049;-64
2022/03/04 03:21:03;;;;;;;26.80;9.95;;;;;;;1.50;100.00;102169.69;10408195;28;20064;-64
2022/03/04 03:26:25;;;;;;;22.55;10.55;;;;;;;1.45;100.00;102171.47;10408744;28;20050;-64
2022/03/04 03:31:47;;;;;;;22.98;10.73;;;;;;;1.32;100.00;102168.97;10395983;28;20052;-64
2022/03/04 03:37:09;;;;;;;19.45;10.07;;;;;;;1.24;100.00;102157.88;10407766;28;20386;-64
2022/03/04 03:42:31;;;;;;;21.13;10.55;;;;;;;1.14;100.00;102149.38;10406461;28;20152;-64
2022/03/04 03:47:54;;;;;;;23.58;11.27;;;;;;;1.12;100.00;102156.22;10368296;28;20054;-64
2022/03/04 03:53:15;;;;;;;18.60;9.82;;;;;;;1.00;100.00;102161.44;10384860;28;20044;-64
2022/03/04 03:58:37;;;;;;;21.23;10.75;;;;;;;1.01;100.00;102164.84;10409516;28;20056;-64
2022/03/04 04:03:59;;;;;;;19.83;10.93;;;;;;;1.02;100.00;102169.94;10409814;28;20053;-64
2022/03/04 04:09:21;;;;;;;20.23;11.18;;;;;;;0.93;100.00;102164.88;10417020;28;20084;-64
2022/03/04 04:14:43;;;;;;;22.80;11.50;;;;;;;0.87;100.00;102178.59;10417923;28;20053;-64
2022/03/04 04:20:05;;;;;;;23.52;11.15;;;;;;;0.81;100.00;102179.44;10415796;28;20049;-64
2022/03/04 04:25:26;;;;;;;26.05;11.45;;;;;;;0.80;100.00;102171.78;10419049;28;20414;-64
2022/03/04 04:30:48;;;;;;;20.33;11.35;;;;;;;0.77;100.00;102182.03;10406535;28;20409;-64
2022/03/04 04:36:10;;;;;;;22.33;11.50;;;;;;;0.81;100.00;102186.31;10414723;28;20053;-64
2022/03/04 04:41:32;;;;;;;22.88;11.57;;;;;;;0.64;100.00;102185.50;10414833;28;20049;-64
2022/03/04 04:46:53;;;;;;;26.25;11.75;;;;;;;0.73;100.00;102190.63;10414983;28;20179;-63
2022/03/04 04:52:15;;;;;;;24.40;11.45;;;;;;;0.69;100.00;102189.75;10374795;28;20045;-64
2022/03/04 04:57:37;;;;;;;21.98;11.75;;;;;;;0.51;100.00;102182.09;10398251;28;20055;-64
2022/03/04 05:02:59;;;;;;;24.38;11.93;;;;;;;0.51;100.00;102179.53;10410735;28;20050;-63
2022/03/04 05:08:21;;;;;;;27.52;11.90;;;;;;;0.60;100.00;102178.66;10359837;28;20060;-64
2022/03/04 05:13:43;;;;;;;27.23;12.23;;;;;;;0.61;100.00;102178.69;10381723;28;20183;-64
2022/03/04 05:19:05;;;;;;;29.25;13.23;;;;;;;0.62;100.00;102174.38;10413713;28;20045;-63
2022/03/04 05:24:26;;;;;;;24.20;12.93;;;;;;;0.60;100.00;102176.09;10412336;28;20046;-64
2022/03/04 05:29:48;;;;;;;25.55;12.48;;;;;;;0.53;100.00;102174.44;10412198;28;20049;-64
2022/03/04 05:35:10;;;;;;;26.15;12.18;;;;;;;0.61;100.00;102185.50;10412558;28;20048;-64
2022/03/04 05:40:32;;;;;;;25.90;12.88;;;;;;;0.64;100.00;102193.19;10370653;28;20136;-63
2022/03/04 05:45:54;;;;;;;28.95;13.63;;;;;;;0.59;100.00;102188.09;10372502;28;20442;-64
2022/03/04 05:51:20;;;;;;;32.40;13.55;;;;;;;0.52;100.00;102193.22;10371719;28;20100;-64
2022/03/04 05:56:42;;;;;;;26.08;13.35;;;;;;;0.53;100.00;102198.34;10398530;28;20042;-64
2022/03/04 06:02:04;;;;;;;29.63;14.05;;;;;;;0.47;100.00;102197.50;10413813;28;20426;-62
2022/03/04 06:07:28;;;;;;;32.75;14.40;;;;;;;0.49;100.00;102200.94;10411462;28;20052;-63
2022/03/04 06:12:49;;;;;;;27.52;14.07;;;;;;;0.36;100.00;102209.50;10410746;28;20053;-62
2022/03/04 06:18:11;;;;;;;30.80;14.65;;;;;;;0.43;100.00;102206.94;10411178;28;20057;-62
2022/03/04 06:23:33;;;;;;;26.38;13.38;;;;;;;0.44;100.00;102207.75;10355620;28;20137;-62
2022/03/04 06:28:55;;;;;;;31.13;14.63;;;;;;;0.46;100.00;102204.34;10369603;28;20049;-62
2022/03/04 06:34:16;;;;;;;29.73;14.07;;;;;;;0.38;100.00;102215.47;10408549;28;20406;-62
2022/03/04 06:39:39;;;;;;;29.52;14.43;;;;;;;0.47;100.00;102207.75;10409795;28;20053;-62
2022/03/04 06:45:00;;;;;;;32.35;14.98;;;;;;;0.60;100.00;102214.56;10409953;28;20042;-63
2022/03/04 06:50:22;;;;;;;35.17;13.75;;;;;;;0.51;100.00;102219.72;10410765;28;20049;-63
2022/03/04 06:55:45;;;;;;;29.13;14.27;;;;;;;0.55;100.00;102218.88;10410022;28;20387;-62
2022/03/04 07:01:06;;;;;;;31.58;14.48;;;;;;;0.64;100.00;102216.28;10396102;28;20049;-63
2022/03/04 07:06:28;;;;;;;28.45;14.15;;;;;;;0.68;100.00;102218.00;10382658;28;20041;-62
2022/03/04 07:11:50;;;;;;;29.67;13.35;;;;;;;0.65;100.00;102228.25;10377762;28;20498;-62
2022/03/04 07:17:12;;;;;;;25.92;13.55;;;;;;;0.70;100.00;102236.81;10408989;28;20406;-62
2022/03/04 07:22:35;;;;;;;28.38;13.60;;;;;;;0.77;100.00;102239.34;10377436;28;20426;-63
2022/03/04 07:27:57;;;;;;;30.65;13.45;;;;;;;0.82;100.00;102247.88;10375267;28;20064;-62
2022/03/04 07:33:19;;;;;;;29.10;14.18;;;;;;;0.83;100.00;102251.31;10415142;28;20069;-62
2022/03/04 07:38:40;;;;;;;28.60;12.63;;;;;;;0.93;100.00;102247.84;10412148;28;20049;-63
2022/03/04 07:44:02;;;;;;;24.17;12.32;;;;;;;1.03;100.00;102248.66;10412337;28;20058;-62
2022/03/04 07:49:24;;;;;;;29.35;13.63;;;;;;;1.00;100.00;102251.28;10377199;28;20053;-63
2022/03/04 07:54:46;;;;;;;24.50;12.65;;;;;;;1.15;100.00;102248.66;10395354;28;20359;-63
2022/03/04 08:00:12;;;;;;;26.77;12.98;;;;;;;1.21;100.00;102250.34;10403714;28;20067;-63
2022/03/04 08:05:34;;;;;;;;;;;;;;;1.24;100.00;102253.75;10390219;28;20057;-63
2022/03/04 08:10:55;;;;;;;24.65;11.32;;;;;;;1.29;100.00;102252.00;10396953;28;19921;-63
2022/03/04 08:16:17;;;;;;;28.33;12.65;;;;;;;1.42;100.00;102258.81;10416535;28;20038;-63
2022/03/04 08:21:39;;;;;;;23.92;11.95;;;;;;;1.62;100.00;102263.84;10375576;28;20057;-63
2022/03/04 08:27:01;;;;;;;24.30;11.82;;;;;;;1.86;100.00;102269.69;10382643;28;20056;-65
2022/03/04 08:32:23;;;;;;;19.02;11.20;;;;;;;2.13;99.74;102277.22;10415959;28;20049;-64
2022/03/04 08:37:55;;;;;;;26.05;12.32;;;;;;;2.09;98.79;102280.66;10414285;28;20056;-64
2022/03/04 08:43:18;;;;;;;22.58;11.63;;;;;;;2.16;99.48;102278.03;10415027;28;20046;-65
2022/03/04 08:48:40;;;;;;;23.75;10.95;;;;;;;2.37;97.85;102279.59;10414816;28;20059;-64
2022/03/04 08:54:02;;;;;;;21.98;9.93;;;;;;;2.62;98.38;102278.53;10414372;28;20387;-64
2022/03/04 08:59:24;;;;;;;22.98;10.63;;;;;;;2.53;96.59;102278.59;10414791;28;20615;-64
2022/03/04 09:04:45;;;;;;;15.68;9.00;;;;;;;2.77;96.84;102288.66;10413764;28;20046;-64
2022/03/04 09:10:08;;;;;;;17.13;9.73;;;;;;;2.67;94.92;102287.91;10413201;28;20584;-64
2022/03/04 09:15:30;;;;;;;16.15;9.32;;;;;;;2.69;95.44;102283.63;10400030;28;20045;-64
2022/03/04 09:20:52;;;;;;;17.48;9.18;;;;;;;2.75;95.61;102290.41;10406899;28;20049;-65
2022/03/04 09:26:14;;;;;;;16.50;8.88;;;;;;;2.92;93.77;102290.22;10402527;28;20121;-64
2022/03/04 09:31:36;;;;;;;18.42;8.93;;;;;;;3.21;94.80;102295.91;10372620;28;20064;-64
2022/03/04 09:36:58;;;;;;;15.98;8.52;;;;;;;3.12;94.01;102298.59;10397233;28;20497;-65
2022/03/04 09:42:21;;;;;;;16.50;9.07;;;;;;;3.10;92.85;102295.19;10399161;28;20061;-66
2022/03/04 09:47:43;;;;;;;17.38;8.63;;;;;;;3.14;92.57;102301.13;10385278;28;20386;-67
2022/03/04 09:53:09;;;;;;;17.48;8.13;;;;;;;2.79;92.31;102308.38;10411854;28;20548;-65
2022/03/04 09:58:31;;;;;;;15.63;8.23;;;;;;;2.87;93.30;102312.59;10412551;28;20144;-64
2022/03/04 10:03:55;;;;;;;14.75;7.68;;;;;;;3.05;93.33;102312.44;10410202;28;20155;-64
2022/03/04 10:09:36;;;;;;;16.48;8.48;;;;;;;3.52;91.61;102328.19;10411240;28;20071;-64
2022/03/04 10:15:06;;;;;;;17.08;8.25;;;;;;;3.38;91.70;102326.66;10411295;28;20057;-65
2022/03/04 10:20:35;;;;;;;13.75;7.57;;;;;;;3.53;91.19;102336.78;10411097;28;20063;-64
2022/03/04 10:25:59;;;;;;;15.35;7.57;;;;;;;3.63;90.87;102328.94;10411230;28;20045;-65
2022/03/04 10:31:24;;;;;;;10.27;6.47;;;;;;;3.81;90.64;102328.66;10372277;28;20410;-64
2022/03/04 10:37:05;;;;;;;12.40;6.67;;;;;;;3.90;88.83;102331.16;10396536;28;20057;-64
2022/03/04 10:43:05;;;;;;;16.05;7.53;;;;;;;3.50;88.67;102337.66;10410599;28;20076;-65
2022/03/04 10:48:28;;;;;;;13.50;6.95;;;;;;;3.68;89.46;102329.69;10372261;28;20539;-65
2022/03/04 10:53:50;;;;;;;10.57;6.72;;;;;;;3.52;89.46;102325.59;10377617;28;20152;-64
2022/03/04 10:59:12;;;;;;;12.88;7.00;;;;;;;3.24;90.37;102331.94;10410283;28;20064;-64
2022/03/04 11:04:35;;;;;;;13.45;6.32;;;;;;;3.11;91.33;102325.22;10409066;28;20510;-63
2022/03/04 11:09:57;;;;;;;13.02;6.72;;;;;;;3.04;90.95;102325.28;10410246;28;20060;-64
2022/03/04 11:15:21;;;;;;;12.50;6.80;;;;;;;3.32;91.92;102317.28;10409098;28;20136;-65
2022/03/04 11:20:44;;;;;;;12.63;7.00;;;;;;;3.33;90.47;102318.13;10408934;28;20398;-64
2022/03/04 11:26:29;;;;;;;15.80;7.15;;;;;;;3.46;88.54;102325.69;10409633;28;20141;-64
2022/03/04 11:31:50;;;;;;;12.43;6.32;;;;;;;3.55;88.62;102315.25;10408331;28;20052;-65
2022/03/04 11:37:18;;;;;;;12.90;7.00;;;;;;;3.79;88.39;102309.78;10395903;28;20050;-63
2022/03/04 11:42:42;;;;;;;11.25;6.40;;;;;;;3.89;88.87;102301.06;10369081;28;20064;-64
2022/03/04 11:48:10;;;;;;;13.85;7.10;;;;;;;4.12;86.46;102293.84;10404309;28;20057;-64
2022/03/04 11:53:31;;;;;;;10.70;5.88;;;;;;;4.07;86.56;102300.81;10408065;28;20049;-64
2022/03/04 11:58:56;;;;;;;12.63;7.07;;;;;;;4.17;83.71;102298.06;10408876;28;20632;-64
2022/03/04 12:04:18;;;;;;;12.50;6.72;;;;;;;4.13;86.88;102295.56;10407599;28;20132;-64
2022/03/04 12:09:54;;;;;;;12.93;6.07;;;;;;;4.23;84.42;102291.94;10409015;28;20149;-65
2022/03/04 12:15:15;;;;;;;11.65;6.30;;;;;;;4.27;84.45;102291.03;10407184;28;20485;-64
2022/03/04 12:20:40;;;;;;;12.50;5.47;;;;;;;4.42;83.27;102280.47;10408078;28;20128;-64
2022/03/04 12:26:02;;;;;;;12.98;5.97;;;;;;;4.36;83.18;102273.69;10371972;28;20053;-64
2022/03/04 12:31:24;;;;;;;14.15;6.57;;;;;;;4.34;83.26;102274.59;10410081;28;20057;-64
2022/03/04 12:36:46;;;;;;;12.57;6.50;;;;;;;4.46;83.46;102264.88;10414488;28;20128;-64
2022/03/04 12:42:09;;;;;;;10.80;5.65;;;;;;;4.71;81.05;102262.75;10415154;28;20053;-63
2022/03/04 12:47:36;;;;;;;10.35;5.45;;;;;;;4.73;81.16;102265.28;10414007;28;20502;-64
2022/03/04 12:52:57;;;;;;;11.55;5.63;;;;;;;4.79;81.87;102264.31;10415103;28;20057;-64
2022/03/04 12:58:36;;;;;;;12.20;5.90;;;;;;;4.79;82.16;102264.31;10413670;28;20049;-63
2022/03/04 13:04:06;;;;;;;11.90;6.35;;;;;;;4.77;82.67;102256.59;10413623;28;20069;-64
2022/03/04 13:09:29;;;;;;;12.23;6.30;;;;;;;4.82;83.75;102254.78;10414184;28;20141;-64
2022/03/04 13:14:52;;;;;;;13.23;6.00;;;;;;;5.03;81.18;102240.59;10413628;28;20053;-64
2022/03/04 13:20:13;;;;;;;14.35;6.03;;;;;;;5.22;78.33;102235.06;10413368;28;20088;-64
2022/03/04 13:25:39;;;;;;;11.20;5.80;;;;;;;5.26;80.24;102234.09;10413734;28;20165;-64
2022/03/04 13:31:00;;;;;;;9.65;5.75;;;;;;;5.23;80.97;102225.56;10382324;28;20068;-64
2022/03/04 13:36:42;;;;;;;9.95;5.22;;;;;;;5.25;80.24;102219.47;10391503;28;20052;-64
2022/03/04 13:42:18;;;;;;;12.25;5.60;;;;;;;5.40;79.54;102219.13;10414101;28;20050;-65
2022/03/04 13:47:56;;;;;;;10.48;5.28;;;;;;;5.51;79.07;102224.97;10391766;28;20046;-64
2022/03/04 13:53:22;;;;;;;10.63;4.90;;;;;;;5.76;72.75;102229.53;10372144;28;20502;-64
2022/03/04 13:58:54;;;;;;;8.43;4.55;;;;;;;5.63;77.10;102211.75;10371840;28;20484;-65
2022/03/04 14:04:19;;;;;;;9.95;4.70;;;;;;;5.62;77.98;102214.34;10392019;28;20049;-64
2022/03/04 14:09:45;;;;;;;9.10;5.40;;;;;;;5.75;76.77;102206.28;10371008;28;20060;-65
2022/03/04 14:15:07;;;;;;;11.73;5.43;;;;;;;6.12;76.29;102212.31;10405646;28;20049;-64
2022/03/04 14:20:30;;;;;;;8.70;5.00;;;;;;;5.88;76.20;102212.91;10401470;28;20058;-65
2022/03/04 14:25:58;;;;;;;9.65;4.63;;;;;;;6.02;74.75;102216.91;10370638;28;20050;-64
2022/03/04 14:31:24;;;;;;;13.13;4.50;;;;;;;5.87;76.10;102218.97;10379420;28;20146;-64
2022/03/04 14:36:46;;;;;;;10.43;4.55;;;;;;;6.01;76.22;102198.78;10410845;28;20096;-64
2022/03/04 14:42:28;;;;;;;7.00;4.47;;;;;;;6.22;74.28;102214.66;10410401;28;20064;-64
2022/03/04 14:47:53;;;;;;;8.18;4.75;;;;;;;6.36;74.61;102211.72;10410397;28;20459;-65
2022/03/04 14:53:17;;;;;;;9.02;4.45;;;;;;;6.43;72.35;102214.13;10410178;28;20265;-65
2022/03/04 14:58:39;;;;;;;7.15;4.32;;;;;;;6.43;71.45;102213.25;10369676;28;20525;-63
2022/03/04 15:04:01;;;;;;;8.00;4.10;;;;;;;6.51;70.95;102211.34;10399227;28;20046;-64
2022/03/04 15:09:22;;;;;;;8.07;4.28;;;;;;;6.48;71.78;102216.59;10390734;28;20075;-64
2022/03/04 15:14:52;;;;;;;6.00;3.72;;;;;;;6.38;71.55;102215.97;10397407;28;20049;-64
2022/03/04 15:20:15;;;;;;;9.05;3.45;;;;;;;6.47;69.96;102209.72;10409021;28;20053;-65
2022/03/04 15:25:36;;;;;;;8.77;4.00;;;;;;;6.27;71.65;102211.94;10409603;28;20045;-64
2022/03/04 15:30:59;;;;;;;5.13;3.78;;;;;;;6.19;72.01;102208.72;10395803;28;20131;-64
2022/03/04 15:36:21;;;;;;;6.55;3.80;;;;;;;6.08;69.65;102208.97;10394037;28;20042;-64
2022/03/04 15:41:47;;;;;;;7.03;4.05;;;;;;;6.20;69.97;102218.19;10409974;28;20049;-63
2022/03/04 15:47:09;;;;;;;4.82;3.10;;;;;;;6.29;69.02;102215.34;10408507;28;20577;-64
2022/03/04 15:52:31;;;;;;;6.65;3.83;;;;;;;6.27;72.10;102217.13;10408157;28;20049;-64
2022/03/04 15:57:53;;;;;;;5.03;3.50;;;;;;;6.95;67.57;102204.94;10408515;28;20046;-64
2022/03/04 16:03:15;;;;;;;4.25;2.92;;;;;;;6.68;67.84;102205.69;10393813;28;20076;-64
2022/03/04 16:08:37;;;;;;;4.40;3.17;;;;;;;6.36;68.43;102198.78;10375823;28;20054;-64
2022/03/04 16:13:58;;;;;;;5.13;2.95;;;;;;;6.12;70.27;102196.78;10385079;28;20060;-67
2022/03/04 16:19:20;;;;;;;6.22;3.90;;;;;;;5.83;71.14;102194.06;10402350;28;20053;-63
2022/03/04 16:24:42;;;;;;;4.70;3.42;;;;;;;5.64;72.10;102197.94;10374620;28;20046;-63
2022/03/04 16:30:04;;;;;;;6.53;3.85;;;;;;;5.52;74.08;102193.03;10374960;28;20066;-65
2022/03/04 16:35:26;;;;;;;5.43;3.85;;;;;;;5.45;74.91;102204.38;10387201;28;20059;-65
2022/03/04 16:40:50;;;;;;;6.40;4.53;;;;;;;5.12;76.47;102197.34;10360875;28;20057;-63
2022/03/04 16:46:15;;;;;;;7.82;4.55;;;;;;;5.02;77.07;102205.34;10402118;28;20059;-62
2022/03/04 16:51:56;;;;;;;6.63;4.15;;;;;;;4.73;77.96;102213.63;10404784;28;20049;-63
2022/03/04 16:57:20;;;;;;;6.72;4.15;;;;;;;4.71;77.65;102205.94;10384263;28;20050;-63
2022/03/04 17:02:41;;;;;;;5.45;3.60;;;;;;;4.52;77.75;102207.13;10397855;28;20652;-63
2022/03/04 17:08:03;;;;;;;6.30;4.18;;;;;;;4.52;79.09;102213.16;10412876;28;20046;-65
2022/03/04 17:13:30;;;;;;;8.25;3.83;;;;;;;4.28;79.47;102218.75;10413205;28;20049;-63
2022/03/04 17:18:52;;;;;;;7.00;3.20;;;;;;;4.20;81.42;102217.19;10413174;28;20506;-63
2022/03/04 17:24:15;;;;;;;5.35;3.03;;;;;;;4.11;78.44;102219.91;10413002;28;20473;-63
2022/03/04 17:29:38;;;;;;;6.30;3.40;;;;;;;4.04;80.18;102218.31;10413482;28;20108;-63
2022/03/04 17:35:02;;;;;;;5.18;2.97;;;;;;;3.99;78.79;102233.00;10385884;28;20228;-63
2022/03/04 17:40:24;;;;;;;5.95;3.58;;;;;;;3.88;79.45;102243.47;10396958;28;20054;-62
2022/03/04 17:45:46;;;;;;;6.40;3.50;;;;;;;3.81;81.51;102246.16;10372010;28;20045;-63
2022/03/04 17:51:08;;;;;;;4.68;3.00;;;;;;;3.69;79.63;102248.91;10409808;28;20788;-64
2022/03/04 17:56:31;;;;;;;8.05;4.10;;;;;;;3.65;81.16;102249.81;10424406;28;20048;-63
2022/03/04 18:01:52;;;;;;;6.95;3.80;;;;;;;3.69;81.70;102251.50;10388602;28;20148;-64
2022/03/04 18:07:16;;;;;;;5.55;3.40;;;;;;;3.51;80.35;102262.03;10411165;28;20498;-64
2022/03/04 18:12:38;;;;;;;6.28;3.75;;;;;;;3.53;80.97;102257.72;10410538;28;20064;-63
2022/03/04 18:17:59;;;;;;;8.38;4.07;;;;;;;3.54;81.67;102262.00;10396277;28;20494;-63
2022/03/04 18:23:26;;;;;;;7.63;4.13;;;;;;;3.43;83.09;102257.84;10388940;28;20076;-63
2022/03/04 18:29:05;;;;;;;8.60;4.63;;;;;;;3.41;81.93;102270.78;10359122;28;20042;-63
2022/03/04 18:34:27;;;;;;;7.53;4.30;;;;;;;3.42;82.71;102269.06;10375662;28;20053;-64
2022/03/04 18:45:43;;;;;;;9.05;4.80;;;;;;;3.17;85.52;102271.06;10369781;28;20073;-63
2022/03/04 18:51:04;;;;;;;;;;;;;;;3.01;84.84;102279.84;10370386;28;20060;-63
2022/03/04 18:56:26;;;;;;;6.35;4.53;;;;;;;3.00;84.90;102296.16;10368796;28;19929;-63
2022/03/04 19:01:54;;;;;;;8.50;5.10;;;;;;;2.97;84.31;102292.75;10386195;28;20060;-63
2022/03/04 19:07:17;;;;;;;6.50;4.53;;;;;;;2.98;85.19;102290.16;10398652;28;20060;-65
2022/03/04 19:12:39;;;;;;;8.68;4.75;;;;;;;2.88;86.14;102300.56;10369227;28;20148;-63
2022/03/04 19:18:01;;;;;;;7.90;5.03;;;;;;;2.90;86.37;102294.56;10377058;28;20411;-63
2022/03/04 19:23:27;;;;;;;8.30;4.82;;;;;;;2.74;85.60;102299.84;10369010;28;20061;-63
2022/03/04 19:28:49;;;;;;;11.23;5.30;;;;;;;2.76;85.92;102289.56;10368993;28;20042;-63
2022/03/04 19:34:10;;;;;;;8.38;4.70;;;;;;;2.64;85.92;102292.22;10375327;28;20059;-64
2022/03/04 19:39:32;;;;;;;10.75;4.97;;;;;;;2.58;86.13;102290.56;10417547;28;20049;-63
2022/03/04 19:44:54;;;;;;;10.15;4.78;;;;;;;2.49;86.33;102282.06;10403162;28;20053;-63
2022/03/04 19:50:16;;;;;;;9.70;5.30;;;;;;;2.45;86.23;102288.13;10417592;28;20091;-63
2022/03/04 19:55:38;;;;;;;12.43;6.18;;;;;;;2.48;86.73;102296.66;10381024;28;20133;-63
2022/03/04 20:00:59;;;;;;;13.80;5.88;;;;;;;2.45;86.86;102285.53;10385702;28;20045;-64
2022/03/04 20:06:21;;;;;;;10.68;6.15;;;;;;;2.30;86.99;102285.66;10403101;28;20088;-63
2022/03/04 20:11:44;;;;;;;8.23;4.88;;;;;;;2.36;87.08;102285.59;10416252;28;20048;-63
2022/03/04 20:17:06;;;;;;;7.88;4.45;;;;;;;2.21;87.62;102285.72;10407798;28;20048;-63
2022/03/04 20:22:28;;;;;;;8.55;4.72;;;;;;;2.28;86.32;102288.22;10390979;28;20502;-63
2022/03/04 20:27:50;;;;;;;10.63;4.93;;;;;;;2.27;87.59;102285.69;10375528;28;20046;-63
2022/03/04 20:33:12;;;;;;;8.93;5.07;;;;;;;2.14;87.85;102281.50;10407896;28;20877;-64
2022/03/04 20:38:35;;;;;;;9.02;5.47;;;;;;;2.12;88.00;102265.22;10415247;28;20521;-64
2022/03/04 20:43:57;;;;;;;9.77;5.28;;;;;;;2.04;87.50;102264.41;10374328;28;20387;-64
2022/03/04 20:49:18;;;;;;;7.63;4.97;;;;;;;1.95;88.31;102264.47;10374765;28;20049;-64
2022/03/04 20:54:40;;;;;;;10.85;5.88;;;;;;;1.90;88.17;102258.50;10373968;28;20464;-63
2022/03/04 21:00:03;;;;;;;6.72;4.50;;;;;;;1.88;87.85;102255.97;10364120;28;20463;-63
2022/03/04 21:05:25;;;;;;;8.98;4.63;;;;;;;1.99;87.75;102249.00;10412966;28;21899;-63
2022/03/04 21:10:47;;;;;;;6.55;4.22;;;;;;;1.87;87.60;102258.56;10374696;28;20053;-62
2022/03/04 21:16:08;;;;;;;8.55;4.20;;;;;;;1.81;87.19;102268.03;10399603;28;20052;-62
2022/03/04 21:21:30;;;;;;;8.50;4.45;;;;;;;1.71;87.83;102263.78;10415695;28;20049;-63
2022/03/04 21:26:52;;;;;;;8.85;4.72;;;;;;;1.76;87.96;102264.63;10376057;28;20650;-63
2022/03/04 21:32:14;;;;;;;8.40;4.63;;;;;;;1.70;88.38;102265.50;10360340;28;20520;-63
2022/03/04 21:37:36;;;;;;;6.97;4.32;;;;;;;1.64;89.24;102270.66;10392769;28;20115;-64
2022/03/04 21:42:58;;;;;;;10.63;5.05;;;;;;;1.60;87.81;102274.09;10413228;28;20049;-64
2022/03/04 21:48:20;;;;;;;7.43;4.03;;;;;;;1.64;87.94;102265.53;10444191;28;20049;-63
2022/03/04 21:53:41;;;;;;;9.50;4.22;;;;;;;1.63;88.79;102256.09;10436614;28;20038;-64
2022/03/04 21:59:03;;;;;;;7.55;4.13;;;;;;;1.60;88.13;102252.72;10375421;28;20081;-64
2022/03/04 22:04:25;;;;;;;7.00;4.05;;;;;;;1.62;87.89;102251.81;10410994;28;20059;-64
2022/03/04 22:09:46;;;;;;;9.13;4.40;;;;;;;1.67;88.17;102244.97;10413457;28;20493;-64
2022/03/04 22:15:09;;;;;;;9.23;4.13;;;;;;;1.64;87.79;102244.13;10412521;28;20140;-64
2022/03/04 22:20:30;;;;;;;6.93;3.72;;;;;;;1.51;87.92;102239.94;10388029;28;20054;-64
2022/03/04 22:25:52;;;;;;;10.45;4.65;;;;;;;1.58;88.23;102229.59;10377206;28;20047;-64
2022/03/04 22:31:14;;;;;;;10.02;5.25;;;;;;;1.50;88.34;102235.66;10412860;28;20060;-64
2022/03/04 22:36:35;;;;;;;9.07;4.35;;;;;;;1.44;87.62;102226.25;10406732;28;20050;-64
2022/03/04 22:41:57;;;;;;;8.82;4.80;;;;;;;1.52;88.27;102229.63;10415950;28;20046;-64
2022/03/04 22:47:20;;;;;;;8.48;4.95;;;;;;;1.45;88.90;102221.97;10397107;28;20532;-63
2022/03/04 22:52:42;;;;;;;10.23;5.10;;;;;;;1.44;88.17;102226.25;10409807;28;20060;-64
2022/03/04 22:58:03;;;;;;;8.55;4.78;;;;;;;1.33;87.62;102217.72;10410328;28;20096;-64
2022/03/04 23:09:05;;;;;;;9.20;4.07;;;;;;;1.32;88.46;102217.75;10409403;28;20522;-64
2022/03/04 23:14:27;;;;;;;8.60;4.38;;;;;;;1.24;88.64;102222.94;10409591;28;20053;-64
2022/03/04 23:19:49;;;;;;;9.18;4.47;;;;;;;1.24;89.36;102233.19;10408712;28;20052;-64
2022/03/04 23:25:11;;;;;;;8.88;4.72;;;;;;;1.25;90.09;102226.34;10394590;28;20054;-64
2022/03/04 23:30:32;;;;;;;11.27;4.93;;;;;;;1.19;89.09;102229.78;10369201;28;20046;-64
2022/03/04 23:35:54;;;;;;;11.70;5.00;;;;;;;1.13;88.83;102227.25;10386176;28;20461;-65
2022/03/04 23:41:16;;;;;;;10.98;4.88;;;;;;;1.06;89.89;102230.69;10407662;28;20060;-64
2022/03/04 23:46:38;;;;;;;9.38;5.18;;;;;;;0.99;89.28;102223.91;10368655;28;20124;-64
2022/03/04 23:52:00;;;;;;;8.77;4.93;;;;;;;0.91;89.77;102221.34;10385359;28;20068;-64
2022/03/04 23:57:21;;;;;;;8.25;5.07;;;;;;;0.95;89.80;102217.06;10408711;28;20049;-63
